Terminal Aerodrome Forecast
Issued by NWS Tampa Bay Area, FL

Home | Current Version | Previous Version | Text Only | Print | Product List | Glossary On
Versions: 1 2 3 4 5 6 7 8 9 10 11 12 13 14 15
081
FTUS42 KTBW 232344
TAFSRQ
TAF
KSRQ 232344Z 2400/2424 19006KT P6SM VCTS SCT020CB OVC100
      TEMPO 2400/2403 3SM +RA BKN020
     FM240300 19004KT P6SM -RA SCT015 BKN040 OVC100
     FM240600 20005KT P6SM VCSH SCT015 BKN025 OVC050
     FM241100 35005KT P6SM SCT015 BKN045 BKN100
     FM241900 32010KT P6SM FEW050 SCT250=

USA.gov is the U.S. government's official web portal to all federal, state and local government web resources and services.